sensor_id;sensor_type;location;lat;lon;timestamp;P1;durP1;ratioP1;P2;durP2;ratioP2
6414;SDS011;3240;48.790;9.210;2022-11-30T00:00:58;49.40;;;24.27;;
6414;SDS011;3240;48.790;9.210;2022-11-30T00:03:27;49.70;;;24.67;;
6414;SDS011;3240;48.790;9.210;2022-11-30T00:05:55;53.53;;;24.90;;
6414;SDS011;3240;48.790;9.210;2022-11-30T00:08:23;51.33;;;23.43;;
6414;SDS011;3240;48.790;9.210;2022-11-30T00:10:52;49.80;;;25.20;;
6414;SDS011;3240;48.790;9.210;2022-11-30T00:13:20;49.10;;;24.13;;
6414;SDS011;3240;48.790;9.210;2022-11-30T00:15:48;49.53;;;23.33;;
6414;SDS011;3240;48.790;9.210;2022-11-30T00:18:17;48.83;;;24.23;;
6414;SDS011;3240;48.790;9.210;2022-11-30T00:20:45;54.75;;;27.27;;
6414;SDS011;3240;48.790;9.210;2022-11-30T00:23:13;47.13;;;24.57;;
6414;SDS011;3240;48.790;9.210;2022-11-30T00:25:42;48.47;;;23.50;;
6414;SDS011;3240;48.790;9.210;2022-11-30T00:28:10;59.10;;;24.90;;
6414;SDS011;3240;48.790;9.210;2022-11-30T00:30:38;57.07;;;25.87;;
6414;SDS011;3240;48.790;9.210;2022-11-30T00:33:07;50.43;;;25.40;;
6414;SDS011;3240;48.790;9.210;2022-11-30T00:35:35;49.93;;;24.50;;
6414;SDS011;3240;48.790;9.210;2022-11-30T00:38:03;49.73;;;25.30;;
6414;SDS011;3240;48.790;9.210;2022-11-30T00:40:32;55.72;;;29.30;;
6414;SDS011;3240;48.790;9.210;2022-11-30T00:43:00;50.57;;;24.70;;
6414;SDS011;3240;48.790;9.210;2022-11-30T00:45:28;49.40;;;25.87;;
6414;SDS011;3240;48.790;9.210;2022-11-30T00:47:57;54.63;;;25.70;;
6414;SDS011;3240;48.790;9.210;2022-11-30T00:50:25;54.10;;;25.23;;
6414;SDS011;3240;48.790;9.210;2022-11-30T00:52:53;48.73;;;24.47;;
6414;SDS011;3240;48.790;9.210;2022-11-30T00:55:22;48.77;;;23.77;;
6414;SDS011;3240;48.790;9.210;2022-11-30T00:57:50;52.63;;;24.53;;
6414;SDS011;3240;48.790;9.210;2022-11-30T01:00:18;49.57;;;24.73;;
6414;SDS011;3240;48.790;9.210;2022-11-30T01:02:47;56.03;;;25.07;;
6414;SDS011;3240;48.790;9.210;2022-11-30T01:05:15;52.70;;;24.40;;
6414;SDS011;3240;48.790;9.210;2022-11-30T01:07:43;49.10;;;25.00;;
6414;SDS011;3240;48.790;9.210;2022-11-30T01:10:12;56.03;;;25.20;;
6414;SDS011;3240;48.790;9.210;2022-11-30T01:12:40;55.20;;;25.47;;
6414;SDS011;3240;48.790;9.210;2022-11-30T01:15:09;48.73;;;24.47;;
6414;SDS011;3240;48.790;9.210;2022-11-30T01:17:37;57.20;;;26.87;;
6414;SDS011;3240;48.790;9.210;2022-11-30T01:20:05;51.20;;;26.20;;
6414;SDS011;3240;48.790;9.210;2022-11-30T01:22:34;48.83;;;24.70;;
6414;SDS011;3240;48.790;9.210;2022-11-30T01:25:02;57.97;;;25.20;;
6414;SDS011;3240;48.790;9.210;2022-11-30T01:27:31;48.23;;;25.20;;
6414;SDS011;3240;48.790;9.210;2022-11-30T01:29:59;49.43;;;24.37;;
6414;SDS011;3240;48.790;9.210;2022-11-30T01:32:27;51.63;;;25.97;;
6414;SDS011;3240;48.790;9.210;2022-11-30T01:34:56;52.73;;;23.17;;
6414;SDS011;3240;48.790;9.210;2022-11-30T01:37:24;51.50;;;23.90;;
6414;SDS011;3240;48.790;9.210;2022-11-30T01:39:52;52.70;;;23.73;;
6414;SDS011;3240;48.790;9.210;2022-11-30T01:42:21;51.80;;;24.80;;
6414;SDS011;3240;48.790;9.210;2022-11-30T01:44:50;57.70;;;25.80;;
6414;SDS011;3240;48.790;9.210;2022-11-30T01:47:19;57.43;;;25.23;;
6414;SDS011;3240;48.790;9.210;2022-11-30T01:49:47;56.13;;;24.03;;
6414;SDS011;3240;48.790;9.210;2022-11-30T01:52:16;50.97;;;24.40;;
6414;SDS011;3240;48.790;9.210;2022-11-30T01:54:58;46.60;;;23.93;;
6414;SDS011;3240;48.790;9.210;2022-11-30T01:57:28;54.07;;;24.57;;
6414;SDS011;3240;48.790;9.210;2022-11-30T01:59:55;44.87;;;23.10;;
6414;SDS011;3240;48.790;9.210;2022-11-30T02:02:25;51.07;;;23.80;;
6414;SDS011;3240;48.790;9.210;2022-11-30T02:04:51;48.03;;;24.65;;
6414;SDS011;3240;48.790;9.210;2022-11-30T02:07:20;46.20;;;23.83;;
6414;SDS011;3240;48.790;9.210;2022-11-30T02:09:48;46.63;;;22.80;;
6414;SDS011;3240;48.790;9.210;2022-11-30T02:12:19;46.90;;;23.87;;
6414;SDS011;3240;48.790;9.210;2022-11-30T02:14:45;46.63;;;23.50;;
6414;SDS011;3240;48.790;9.210;2022-11-30T02:17:19;49.73;;;24.57;;
6414;SDS011;3240;48.790;9.210;2022-11-30T02:25:09;51.83;;;24.37;;
6414;SDS011;3240;48.790;9.210;2022-11-30T02:27:41;48.70;;;23.10;;
6414;SDS011;3240;48.790;9.210;2022-11-30T02:30:08;51.33;;;24.93;;
6414;SDS011;3240;48.790;9.210;2022-11-30T02:32:39;49.27;;;24.40;;
6414;SDS011;3240;48.790;9.210;2022-11-30T02:35:06;48.40;;;23.43;;
6414;SDS011;3240;48.790;9.210;2022-11-30T02:37:35;48.53;;;23.43;;
6414;SDS011;3240;48.790;9.210;2022-11-30T02:40:08;45.23;;;22.20;;
6414;SDS011;3240;48.790;9.210;2022-11-30T02:42:36;41.83;;;21.87;;
6414;SDS011;3240;48.790;9.210;2022-11-30T02:45:04;48.17;;;22.40;;
6414;SDS011;3240;48.790;9.210;2022-11-30T02:47:35;38.33;;;21.30;;
6414;SDS011;3240;48.790;9.210;2022-11-30T02:50:07;43.30;;;22.97;;
6414;SDS011;3240;48.790;9.210;2022-11-30T02:52:32;45.30;;;23.57;;
6414;SDS011;3240;48.790;9.210;2022-11-30T02:55:02;40.73;;;21.10;;
6414;SDS011;3240;48.790;9.210;2022-11-30T02:57:29;40.97;;;22.10;;
6414;SDS011;3240;48.790;9.210;2022-11-30T02:59:58;38.07;;;20.87;;
6414;SDS011;3240;48.790;9.210;2022-11-30T03:02:26;48.13;;;21.30;;
6414;SDS011;3240;48.790;9.210;2022-11-30T03:04:54;42.17;;;21.23;;
6414;SDS011;3240;48.790;9.210;2022-11-30T03:07:23;42.70;;;21.67;;
6414;SDS011;3240;48.790;9.210;2022-11-30T03:09:51;44.07;;;23.47;;
6414;SDS011;3240;48.790;9.210;2022-11-30T03:12:19;40.77;;;20.30;;
6414;SDS011;3240;48.790;9.210;2022-11-30T03:14:48;39.30;;;20.07;;
6414;SDS011;3240;48.790;9.210;2022-11-30T03:17:16;44.03;;;21.53;;
6414;SDS011;3240;48.790;9.210;2022-11-30T03:19:44;37.83;;;19.00;;
6414;SDS011;3240;48.790;9.210;2022-11-30T03:22:13;42.40;;;21.27;;
6414;SDS011;3240;48.790;9.210;2022-11-30T03:24:41;39.03;;;20.37;;
6414;SDS011;3240;48.790;9.210;2022-11-30T03:27:09;39.03;;;19.93;;
6414;SDS011;3240;48.790;9.210;2022-11-30T03:29:38;42.30;;;22.65;;
6414;SDS011;3240;48.790;9.210;2022-11-30T03:32:06;40.03;;;20.70;;
6414;SDS011;3240;48.790;9.210;2022-11-30T03:34:34;40.17;;;19.50;;
6414;SDS011;3240;48.790;9.210;2022-11-30T03:37:03;41.73;;;19.70;;
6414;SDS011;3240;48.790;9.210;2022-11-30T03:39:31;41.33;;;20.63;;
6414;SDS011;3240;48.790;9.210;2022-11-30T03:41:59;39.10;;;19.60;;
6414;SDS011;3240;48.790;9.210;2022-11-30T03:44:28;39.43;;;19.70;;
6414;SDS011;3240;48.790;9.210;2022-11-30T03:46:56;39.10;;;19.87;;
6414;SDS011;3240;48.790;9.210;2022-11-30T03:49:24;37.03;;;18.77;;
6414;SDS011;3240;48.790;9.210;2022-11-30T03:51:53;37.60;;;19.50;;
6414;SDS011;3240;48.790;9.210;2022-11-30T03:54:21;37.47;;;18.30;;
6414;SDS011;3240;48.790;9.210;2022-11-30T03:56:49;46.50;;;21.47;;
6414;SDS011;3240;48.790;9.210;2022-11-30T03:59:18;37.53;;;19.00;;
6414;SDS011;3240;48.790;9.210;2022-11-30T04:01:46;36.80;;;18.87;;
6414;SDS011;3240;48.790;9.210;2022-11-30T04:04:14;32.90;;;18.37;;
6414;SDS011;3240;48.790;9.210;2022-11-30T04:06:43;37.67;;;19.80;;
6414;SDS011;3240;48.790;9.210;2022-11-30T04:09:11;38.23;;;19.40;;
6414;SDS011;3240;48.790;9.210;2022-11-30T04:11:39;35.53;;;18.50;;
6414;SDS011;3240;48.790;9.210;2022-11-30T04:14:08;39.57;;;19.10;;
6414;SDS011;3240;48.790;9.210;2022-11-30T04:16:36;34.33;;;18.40;;
6414;SDS011;3240;48.790;9.210;2022-11-30T04:19:04;35.80;;;19.23;;
6414;SDS011;3240;48.790;9.210;2022-11-30T04:21:33;35.27;;;19.53;;
6414;SDS011;3240;48.790;9.210;2022-11-30T04:24:01;36.93;;;18.50;;
6414;SDS011;3240;48.790;9.210;2022-11-30T04:26:29;35.53;;;18.13;;
6414;SDS011;3240;48.790;9.210;2022-11-30T04:28:58;35.90;;;19.57;;
6414;SDS011;3240;48.790;9.210;2022-11-30T04:31:26;35.50;;;19.00;;
6414;SDS011;3240;48.790;9.210;2022-11-30T04:33:54;35.30;;;19.47;;
6414;SDS011;3240;48.790;9.210;2022-11-30T04:36:23;37.70;;;21.33;;
6414;SDS011;3240;48.790;9.210;2022-11-30T04:38:51;36.33;;;19.40;;
6414;SDS011;3240;48.790;9.210;2022-11-30T04:41:19;34.50;;;18.07;;
6414;SDS011;3240;48.790;9.210;2022-11-30T04:43:47;34.50;;;18.40;;
6414;SDS011;3240;48.790;9.210;2022-11-30T04:46:16;35.87;;;18.00;;
6414;SDS011;3240;48.790;9.210;2022-11-30T04:48:44;38.93;;;18.20;;
6414;SDS011;3240;48.790;9.210;2022-11-30T04:51:12;42.53;;;18.73;;
6414;SDS011;3240;48.790;9.210;2022-11-30T04:53:41;39.60;;;20.90;;
6414;SDS011;3240;48.790;9.210;2022-11-30T04:56:09;38.10;;;19.17;;
6414;SDS011;3240;48.790;9.210;2022-11-30T04:58:38;38.07;;;18.77;;
6414;SDS011;3240;48.790;9.210;2022-11-30T05:01:06;35.60;;;17.90;;
6414;SDS011;3240;48.790;9.210;2022-11-30T05:03:34;39.03;;;18.60;;
6414;SDS011;3240;48.790;9.210;2022-11-30T05:06:03;35.17;;;17.67;;
6414;SDS011;3240;48.790;9.210;2022-11-30T05:08:31;35.70;;;17.07;;
6414;SDS011;3240;48.790;9.210;2022-11-30T05:10:59;37.67;;;19.20;;
6414;SDS011;3240;48.790;9.210;2022-11-30T05:13:28;40.53;;;18.67;;
6414;SDS011;3240;48.790;9.210;2022-11-30T05:15:56;37.60;;;18.10;;
6414;SDS011;3240;48.790;9.210;2022-11-30T05:18:24;34.70;;;18.30;;
6414;SDS011;3240;48.790;9.210;2022-11-30T05:20:53;37.10;;;17.73;;
6414;SDS011;3240;48.790;9.210;2022-11-30T05:23:21;29.07;;;16.43;;
6414;SDS011;3240;48.790;9.210;2022-11-30T05:25:49;37.00;;;17.93;;
6414;SDS011;3240;48.790;9.210;2022-11-30T05:28:18;38.93;;;19.00;;
6414;SDS011;3240;48.790;9.210;2022-11-30T05:30:46;29.90;;;16.73;;
6414;SDS011;3240;48.790;9.210;2022-11-30T05:33:15;30.00;;;15.97;;
6414;SDS011;3240;48.790;9.210;2022-11-30T05:35:43;31.57;;;17.10;;
6414;SDS011;3240;48.790;9.210;2022-11-30T05:38:11;30.50;;;16.33;;
6414;SDS011;3240;48.790;9.210;2022-11-30T05:40:40;30.30;;;16.30;;
6414;SDS011;3240;48.790;9.210;2022-11-30T05:43:08;32.73;;;15.90;;
6414;SDS011;3240;48.790;9.210;2022-11-30T05:45:36;34.83;;;16.07;;
6414;SDS011;3240;48.790;9.210;2022-11-30T05:48:05;28.67;;;14.87;;
6414;SDS011;3240;48.790;9.210;2022-11-30T05:50:33;30.20;;;17.27;;
6414;SDS011;3240;48.790;9.210;2022-11-30T05:53:01;29.50;;;14.97;;
6414;SDS011;3240;48.790;9.210;2022-11-30T05:55:30;28.90;;;15.07;;
6414;SDS011;3240;48.790;9.210;2022-11-30T05:57:58;27.93;;;14.40;;
6414;SDS011;3240;48.790;9.210;2022-11-30T06:00:26;23.17;;;13.63;;
6414;SDS011;3240;48.790;9.210;2022-11-30T06:02:55;29.03;;;15.07;;
6414;SDS011;3240;48.790;9.210;2022-11-30T06:05:23;28.50;;;13.70;;
6414;SDS011;3240;48.790;9.210;2022-11-30T06:07:52;24.80;;;14.43;;
6414;SDS011;3240;48.790;9.210;2022-11-30T06:10:20;29.33;;;14.10;;
6414;SDS011;3240;48.790;9.210;2022-11-30T06:12:48;29.10;;;15.17;;
6414;SDS011;3240;48.790;9.210;2022-11-30T06:15:16;23.93;;;13.43;;
6414;SDS011;3240;48.790;9.210;2022-11-30T06:17:45;25.70;;;14.20;;
6414;SDS011;3240;48.790;9.210;2022-11-30T06:20:13;28.70;;;14.93;;
6414;SDS011;3240;48.790;9.210;2022-11-30T06:22:43;28.37;;;15.70;;
6414;SDS011;3240;48.790;9.210;2022-11-30T06:25:10;32.80;;;17.00;;
6414;SDS011;3240;48.790;9.210;2022-11-30T06:27:38;30.93;;;15.57;;
6414;SDS011;3240;48.790;9.210;2022-11-30T06:30:07;27.63;;;16.50;;
6414;SDS011;3240;48.790;9.210;2022-11-30T06:32:35;26.90;;;14.83;;
6414;SDS011;3240;48.790;9.210;2022-11-30T06:35:04;27.77;;;15.27;;
6414;SDS011;3240;48.790;9.210;2022-11-30T06:37:33;31.50;;;15.43;;
6414;SDS011;3240;48.790;9.210;2022-11-30T06:40:01;27.37;;;14.77;;
6414;SDS011;3240;48.790;9.210;2022-11-30T06:42:29;27.10;;;14.97;;
6414;SDS011;3240;48.790;9.210;2022-11-30T06:44:57;26.00;;;15.00;;
6414;SDS011;3240;48.790;9.210;2022-11-30T06:47:26;27.80;;;15.47;;
6414;SDS011;3240;48.790;9.210;2022-11-30T06:49:54;25.50;;;15.27;;
6414;SDS011;3240;48.790;9.210;2022-11-30T06:52:22;27.40;;;15.73;;
6414;SDS011;3240;48.790;9.210;2022-11-30T06:54:51;28.43;;;15.00;;
6414;SDS011;3240;48.790;9.210;2022-11-30T06:57:19;24.50;;;14.90;;
6414;SDS011;3240;48.790;9.210;2022-11-30T06:59:47;30.17;;;15.37;;
6414;SDS011;3240;48.790;9.210;2022-11-30T07:02:16;24.50;;;14.13;;
6414;SDS011;3240;48.790;9.210;2022-11-30T07:04:44;29.30;;;15.13;;
6414;SDS011;3240;48.790;9.210;2022-11-30T07:07:12;31.30;;;15.97;;
6414;SDS011;3240;48.790;9.210;2022-11-30T07:09:41;27.67;;;14.77;;
6414;SDS011;3240;48.790;9.210;2022-11-30T07:12:10;32.60;;;16.03;;
6414;SDS011;3240;48.790;9.210;2022-11-30T07:14:37;23.93;;;14.87;;
6414;SDS011;3240;48.790;9.210;2022-11-30T07:17:06;29.33;;;14.50;;
6414;SDS011;3240;48.790;9.210;2022-11-30T07:19:34;27.03;;;14.60;;
6414;SDS011;3240;48.790;9.210;2022-11-30T07:22:03;26.93;;;14.33;;
6414;SDS011;3240;48.790;9.210;2022-11-30T07:24:31;26.23;;;13.87;;
6414;SDS011;3240;48.790;9.210;2022-11-30T07:27:05;26.33;;;14.20;;
6414;SDS011;3240;48.790;9.210;2022-11-30T07:29:33;26.63;;;14.40;;
6414;SDS011;3240;48.790;9.210;2022-11-30T07:32:02;32.07;;;14.63;;
6414;SDS011;3240;48.790;9.210;2022-11-30T07:34:30;23.80;;;13.63;;
6414;SDS011;3240;48.790;9.210;2022-11-30T07:36:59;26.70;;;14.80;;
6414;SDS011;3240;48.790;9.210;2022-11-30T07:39:27;24.07;;;13.80;;
6414;SDS011;3240;48.790;9.210;2022-11-30T07:41:55;27.00;;;14.70;;
6414;SDS011;3240;48.790;9.210;2022-11-30T07:44:24;29.07;;;13.70;;
6414;SDS011;3240;48.790;9.210;2022-11-30T07:46:52;28.10;;;15.67;;
6414;SDS011;3240;48.790;9.210;2022-11-30T07:49:20;29.37;;;15.87;;
6414;SDS011;3240;48.790;9.210;2022-11-30T07:51:49;30.27;;;15.20;;
6414;SDS011;3240;48.790;9.210;2022-11-30T07:54:17;24.23;;;13.67;;
6414;SDS011;3240;48.790;9.210;2022-11-30T07:56:45;27.03;;;13.97;;
6414;SDS011;3240;48.790;9.210;2022-11-30T07:59:14;28.15;;;16.23;;
6414;SDS011;3240;48.790;9.210;2022-11-30T08:01:42;23.60;;;14.53;;
6414;SDS011;3240;48.790;9.210;2022-11-30T08:04:10;25.83;;;13.20;;
6414;SDS011;3240;48.790;9.210;2022-11-30T08:06:39;23.00;;;12.97;;
6414;SDS011;3240;48.790;9.210;2022-11-30T08:09:09;28.20;;;15.63;;
6414;SDS011;3240;48.790;9.210;2022-11-30T08:11:35;26.63;;;13.80;;
6414;SDS011;3240;48.790;9.210;2022-11-30T08:14:04;23.50;;;12.97;;
6414;SDS011;3240;48.790;9.210;2022-11-30T08:16:34;24.13;;;13.50;;
6414;SDS011;3240;48.790;9.210;2022-11-30T08:19:01;25.03;;;13.87;;
6414;SDS011;3240;48.790;9.210;2022-11-30T08:21:30;24.17;;;12.57;;
6414;SDS011;3240;48.790;9.210;2022-11-30T08:23:59;23.67;;;13.73;;
6414;SDS011;3240;48.790;9.210;2022-11-30T08:26:28;26.43;;;15.30;;
6414;SDS011;3240;48.790;9.210;2022-11-30T08:28:56;26.43;;;14.87;;
6414;SDS011;3240;48.790;9.210;2022-11-30T08:31:25;27.13;;;15.00;;
6414;SDS011;3240;48.790;9.210;2022-11-30T08:33:54;28.73;;;15.47;;
6414;SDS011;3240;48.790;9.210;2022-11-30T08:36:22;26.10;;;14.20;;
6414;SDS011;3240;48.790;9.210;2022-11-30T08:38:50;30.33;;;16.23;;
6414;SDS011;3240;48.790;9.210;2022-11-30T08:41:18;33.87;;;16.70;;
6414;SDS011;3240;48.790;9.210;2022-11-30T08:43:46;28.30;;;15.73;;
6414;SDS011;3240;48.790;9.210;2022-11-30T08:46:14;27.00;;;14.83;;
6414;SDS011;3240;48.790;9.210;2022-11-30T08:48:42;31.30;;;16.90;;
6414;SDS011;3240;48.790;9.210;2022-11-30T08:51:12;30.70;;;16.30;;
6414;SDS011;3240;48.790;9.210;2022-11-30T08:53:39;33.30;;;16.63;;
6414;SDS011;3240;48.790;9.210;2022-11-30T08:56:09;30.63;;;16.30;;
6414;SDS011;3240;48.790;9.210;2022-11-30T08:58:36;35.17;;;16.50;;
6414;SDS011;3240;48.790;9.210;2022-11-30T09:01:05;30.50;;;15.93;;
6414;SDS011;3240;48.790;9.210;2022-11-30T09:03:32;33.70;;;15.60;;
6414;SDS011;3240;48.790;9.210;2022-11-30T09:06:05;30.80;;;16.60;;
6414;SDS011;3240;48.790;9.210;2022-11-30T09:08:33;33.00;;;17.03;;
6414;SDS011;3240;48.790;9.210;2022-11-30T09:13:35;33.87;;;16.73;;
6414;SDS011;3240;48.790;9.210;2022-11-30T09:16:03;32.00;;;15.90;;
6414;SDS011;3240;48.790;9.210;2022-11-30T09:18:32;33.00;;;17.33;;
6414;SDS011;3240;48.790;9.210;2022-11-30T09:21:00;32.27;;;16.67;;
6414;SDS011;3240;48.790;9.210;2022-11-30T09:23:28;30.53;;;16.20;;
6414;SDS011;3240;48.790;9.210;2022-11-30T09:25:57;35.80;;;16.10;;
6414;SDS011;3240;48.790;9.210;2022-11-30T09:28:25;36.23;;;16.80;;
6414;SDS011;3240;48.790;9.210;2022-11-30T09:30:53;30.83;;;14.73;;
6414;SDS011;3240;48.790;9.210;2022-11-30T09:33:21;29.43;;;15.33;;
6414;SDS011;3240;48.790;9.210;2022-11-30T09:35:55;31.33;;;17.40;;
6414;SDS011;3240;48.790;9.210;2022-11-30T09:38:23;38.63;;;17.13;;
6414;SDS011;3240;48.790;9.210;2022-11-30T09:40:53;35.13;;;17.03;;
6414;SDS011;3240;48.790;9.210;2022-11-30T09:45:55;29.87;;;16.77;;
6414;SDS011;3240;48.790;9.210;2022-11-30T09:48:26;29.00;;;15.13;;
6414;SDS011;3240;48.790;9.210;2022-11-30T09:50:52;26.17;;;14.80;;
6414;SDS011;3240;48.790;9.210;2022-11-30T09:53:24;32.27;;;15.40;;
6414;SDS011;3240;48.790;9.210;2022-11-30T09:55:50;29.97;;;15.13;;
6414;SDS011;3240;48.790;9.210;2022-11-30T10:00:52;34.40;;;15.80;;
6414;SDS011;3240;48.790;9.210;2022-11-30T10:03:21;26.97;;;15.57;;
6414;SDS011;3240;48.790;9.210;2022-11-30T10:05:55;29.47;;;14.73;;
6414;SDS011;3240;48.790;9.210;2022-11-30T10:08:25;30.50;;;15.50;;
6414;SDS011;3240;48.790;9.210;2022-11-30T10:16:25;27.17;;;14.07;;
6414;SDS011;3240;48.790;9.210;2022-11-30T10:18:53;29.97;;;15.60;;
6414;SDS011;3240;48.790;9.210;2022-11-30T10:21:39;26.23;;;14.87;;
6414;SDS011;3240;48.790;9.210;2022-11-30T10:24:11;28.30;;;15.80;;
6414;SDS011;3240;48.790;9.210;2022-11-30T10:26:35;28.93;;;15.07;;
6414;SDS011;3240;48.790;9.210;2022-11-30T10:31:48;29.83;;;15.57;;
6414;SDS011;3240;48.790;9.210;2022-11-30T10:34:19;30.73;;;14.90;;
6414;SDS011;3240;48.790;9.210;2022-11-30T10:36:48;30.37;;;14.33;;
6414;SDS011;3240;48.790;9.210;2022-11-30T10:39:18;29.63;;;14.90;;
6414;SDS011;3240;48.790;9.210;2022-11-30T10:41:46;27.80;;;14.57;;
6414;SDS011;3240;48.790;9.210;2022-11-30T10:44:17;25.40;;;13.83;;
6414;SDS011;3240;48.790;9.210;2022-11-30T10:46:47;29.80;;;14.70;;
6414;SDS011;3240;48.790;9.210;2022-11-30T10:49:14;30.63;;;14.63;;
6414;SDS011;3240;48.790;9.210;2022-11-30T10:51:41;29.27;;;17.37;;
6414;SDS011;3240;48.790;9.210;2022-11-30T10:54:13;32.50;;;16.00;;
6414;SDS011;3240;48.790;9.210;2022-11-30T10:56:40;30.17;;;15.50;;
6414;SDS011;3240;48.790;9.210;2022-11-30T10:59:12;28.10;;;14.80;;
6414;SDS011;3240;48.790;9.210;2022-11-30T11:01:39;30.77;;;15.07;;
6414;SDS011;3240;48.790;9.210;2022-11-30T11:04:15;27.43;;;15.80;;
6414;SDS011;3240;48.790;9.210;2022-11-30T11:06:46;34.57;;;18.87;;
6414;SDS011;3240;48.790;9.210;2022-11-30T11:11:51;28.02;;;14.70;;
6414;SDS011;3240;48.790;9.210;2022-11-30T11:14:17;32.83;;;14.47;;
6414;SDS011;3240;48.790;9.210;2022-11-30T11:16:52;29.47;;;15.17;;
6414;SDS011;3240;48.790;9.210;2022-11-30T11:19:23;26.40;;;13.20;;
6414;SDS011;3240;48.790;9.210;2022-11-30T11:21:49;23.80;;;13.80;;
6414;SDS011;3240;48.790;9.210;2022-11-30T11:24:18;45.17;;;23.73;;
6414;SDS011;3240;48.790;9.210;2022-11-30T11:26:48;22.93;;;12.30;;
6414;SDS011;3240;48.790;9.210;2022-11-30T11:29:27;24.93;;;12.53;;
6414;SDS011;3240;48.790;9.210;2022-11-30T11:32:05;25.27;;;13.20;;
6414;SDS011;3240;48.790;9.210;2022-11-30T11:34:34;21.50;;;12.43;;
6414;SDS011;3240;48.790;9.210;2022-11-30T11:37:15;24.40;;;13.20;;
6414;SDS011;3240;48.790;9.210;2022-11-30T11:39:35;18.77;;;11.37;;
6414;SDS011;3240;48.790;9.210;2022-11-30T11:42:03;21.33;;;11.70;;
6414;SDS011;3240;48.790;9.210;2022-11-30T11:44:31;23.37;;;12.13;;
6414;SDS011;3240;48.790;9.210;2022-11-30T11:47:01;21.80;;;12.07;;
6414;SDS011;3240;48.790;9.210;2022-11-30T11:49:29;24.57;;;12.90;;
6414;SDS011;3240;48.790;9.210;2022-11-30T11:51:58;19.13;;;11.20;;
6414;SDS011;3240;48.790;9.210;2022-11-30T11:54:28;21.93;;;11.80;;
6414;SDS011;3240;48.790;9.210;2022-11-30T11:56:55;22.17;;;11.77;;
6414;SDS011;3240;48.790;9.210;2022-11-30T12:02:00;22.87;;;13.47;;
6414;SDS011;3240;48.790;9.210;2022-11-30T12:04:31;23.23;;;12.20;;
6414;SDS011;3240;48.790;9.210;2022-11-30T12:06:59;20.70;;;12.50;;
6414;SDS011;3240;48.790;9.210;2022-11-30T12:09:28;22.70;;;12.60;;
6414;SDS011;3240;48.790;9.210;2022-11-30T12:11:55;24.93;;;12.53;;
6414;SDS011;3240;48.790;9.210;2022-11-30T12:14:23;24.53;;;13.93;;
6414;SDS011;3240;48.790;9.210;2022-11-30T12:16:57;25.43;;;13.30;;
6414;SDS011;3240;48.790;9.210;2022-11-30T12:19:25;23.00;;;12.83;;
6414;SDS011;3240;48.790;9.210;2022-11-30T12:21:57;24.03;;;12.10;;
6414;SDS011;3240;48.790;9.210;2022-11-30T12:24:32;23.60;;;13.27;;
6414;SDS011;3240;48.790;9.210;2022-11-30T12:27:03;23.03;;;12.47;;
6414;SDS011;3240;48.790;9.210;2022-11-30T12:29:47;22.27;;;12.17;;
6414;SDS011;3240;48.790;9.210;2022-11-30T12:32:15;19.40;;;11.00;;
6414;SDS011;3240;48.790;9.210;2022-11-30T12:34:47;23.27;;;11.03;;
6414;SDS011;3240;48.790;9.210;2022-11-30T12:37:19;17.60;;;10.67;;
6414;SDS011;3240;48.790;9.210;2022-11-30T12:39:51;26.67;;;12.10;;
6414;SDS011;3240;48.790;9.210;2022-11-30T12:42:18;27.10;;;13.37;;
6414;SDS011;3240;48.790;9.210;2022-11-30T12:45:02;25.67;;;14.10;;
6414;SDS011;3240;48.790;9.210;2022-11-30T12:47:30;24.23;;;13.07;;
6414;SDS011;3240;48.790;9.210;2022-11-30T12:52:43;23.07;;;11.77;;
6414;SDS011;3240;48.790;9.210;2022-11-30T12:55:19;22.40;;;13.03;;
6414;SDS011;3240;48.790;9.210;2022-11-30T12:57:50;22.50;;;12.03;;
6414;SDS011;3240;48.790;9.210;2022-11-30T13:00:17;26.23;;;14.77;;
6414;SDS011;3240;48.790;9.210;2022-11-30T13:05:33;28.40;;;13.50;;
6414;SDS011;3240;48.790;9.210;2022-11-30T13:08:09;22.87;;;12.40;;
6414;SDS011;3240;48.790;9.210;2022-11-30T13:10:34;24.80;;;13.20;;
6414;SDS011;3240;48.790;9.210;2022-11-30T13:13:01;22.60;;;12.03;;
6414;SDS011;3240;48.790;9.210;2022-11-30T13:15:30;28.40;;;13.77;;
6414;SDS011;3240;48.790;9.210;2022-11-30T13:17:57;23.80;;;13.13;;
6414;SDS011;3240;48.790;9.210;2022-11-30T13:20:31;22.50;;;13.83;;
6414;SDS011;3240;48.790;9.210;2022-11-30T13:22:58;25.80;;;13.60;;
6414;SDS011;3240;48.790;9.210;2022-11-30T13:25:50;22.40;;;12.53;;
6414;SDS011;3240;48.790;9.210;2022-11-30T13:28:24;25.23;;;12.63;;
6414;SDS011;3240;48.790;9.210;2022-11-30T13:30:47;22.23;;;12.00;;
6414;SDS011;3240;48.790;9.210;2022-11-30T13:35:51;22.20;;;11.30;;
6414;SDS011;3240;48.790;9.210;2022-11-30T13:38:18;22.73;;;11.53;;
6414;SDS011;3240;48.790;9.210;2022-11-30T13:40:55;16.00;;;9.53;;
6414;SDS011;3240;48.790;9.210;2022-11-30T13:43:22;20.97;;;11.27;;
6414;SDS011;3240;48.790;9.210;2022-11-30T13:46:00;17.83;;;10.30;;
6414;SDS011;3240;48.790;9.210;2022-11-30T13:49:07;22.37;;;11.10;;
6414;SDS011;3240;48.790;9.210;2022-11-30T13:51:01;19.23;;;10.63;;
6414;SDS011;3240;48.790;9.210;2022-11-30T13:53:30;25.20;;;12.00;;
6414;SDS011;3240;48.790;9.210;2022-11-30T13:56:03;27.90;;;11.67;;
6414;SDS011;3240;48.790;9.210;2022-11-30T13:58:30;23.17;;;12.30;;
6414;SDS011;3240;48.790;9.210;2022-11-30T14:01:02;19.60;;;10.00;;
6414;SDS011;3240;48.790;9.210;2022-11-30T14:03:29;22.63;;;11.77;;
6414;SDS011;3240;48.790;9.210;2022-11-30T14:05:58;20.50;;;10.80;;
6414;SDS011;3240;48.790;9.210;2022-11-30T14:08:31;21.50;;;11.60;;
6414;SDS011;3240;48.790;9.210;2022-11-30T14:13:32;20.10;;;11.07;;
6414;SDS011;3240;48.790;9.210;2022-11-30T14:16:00;23.70;;;12.27;;
6414;SDS011;3240;48.790;9.210;2022-11-30T14:18:30;21.47;;;11.53;;
6414;SDS011;3240;48.790;9.210;2022-11-30T14:20:59;23.93;;;12.70;;
6414;SDS011;3240;48.790;9.210;2022-11-30T14:23:30;23.58;;;12.02;;
6414;SDS011;3240;48.790;9.210;2022-11-30T14:26:01;22.10;;;10.70;;
6414;SDS011;3240;48.790;9.210;2022-11-30T14:28:42;20.63;;;10.90;;
6414;SDS011;3240;48.790;9.210;2022-11-30T14:31:14;23.33;;;12.80;;
6414;SDS011;3240;48.790;9.210;2022-11-30T14:33:42;26.50;;;12.27;;
6414;SDS011;3240;48.790;9.210;2022-11-30T14:36:09;24.80;;;13.10;;
6414;SDS011;3240;48.790;9.210;2022-11-30T14:38:38;23.53;;;13.00;;
6414;SDS011;3240;48.790;9.210;2022-11-30T14:41:05;22.50;;;12.87;;
6414;SDS011;3240;48.790;9.210;2022-11-30T14:43:33;22.10;;;12.07;;
6414;SDS011;3240;48.790;9.210;2022-11-30T14:46:02;19.85;;;11.77;;
6414;SDS011;3240;48.790;9.210;2022-11-30T14:48:29;23.37;;;13.00;;
6414;SDS011;3240;48.790;9.210;2022-11-30T14:50:58;21.13;;;11.30;;
6414;SDS011;3240;48.790;9.210;2022-11-30T14:53:36;22.27;;;13.00;;
6414;SDS011;3240;48.790;9.210;2022-11-30T14:56:18;24.77;;;12.50;;
6414;SDS011;3240;48.790;9.210;2022-11-30T14:58:36;20.13;;;11.17;;
6414;SDS011;3240;48.790;9.210;2022-11-30T15:01:03;24.40;;;13.00;;
6414;SDS011;3240;48.790;9.210;2022-11-30T15:03:32;23.10;;;12.30;;
6414;SDS011;3240;48.790;9.210;2022-11-30T15:05:59;24.20;;;12.13;;
6414;SDS011;3240;48.790;9.210;2022-11-30T15:08:36;22.40;;;12.90;;
6414;SDS011;3240;48.790;9.210;2022-11-30T15:11:05;26.40;;;12.80;;
6414;SDS011;3240;48.790;9.210;2022-11-30T15:13:32;24.80;;;12.67;;
6414;SDS011;3240;48.790;9.210;2022-11-30T15:16:00;25.03;;;13.53;;
6414;SDS011;3240;48.790;9.210;2022-11-30T15:18:28;27.60;;;13.30;;
6414;SDS011;3240;48.790;9.210;2022-11-30T15:20:58;26.47;;;13.70;;
6414;SDS011;3240;48.790;9.210;2022-11-30T15:23:25;24.63;;;15.00;;
6414;SDS011;3240;48.790;9.210;2022-11-30T15:25:58;24.00;;;13.77;;
6414;SDS011;3240;48.790;9.210;2022-11-30T15:28:29;27.30;;;13.03;;
6414;SDS011;3240;48.790;9.210;2022-11-30T15:30:55;27.60;;;14.10;;
6414;SDS011;3240;48.790;9.210;2022-11-30T15:33:23;27.47;;;13.40;;
6414;SDS011;3240;48.790;9.210;2022-11-30T15:35:52;30.83;;;14.30;;